Time;durP1;ratioP1;P1;durP2;ratioP2;P2;SDS_P1;SDS_P2;PMS_P1;PMS_P2;Temp;Humidity;BMP_temperature;BMP_pressure;BME280_temperature;BME280_humidity;BME280_pressure;Samples;Min_cycle;Max_cycle;Signal;HPM_P1;HPM_P2
2024/01/27 00:00:14;;;;;;;10.00;2.73;;;;;;;4.92;81.84;102291.31;4998685;28;20704;-82
2024/01/27 00:02:40;;;;;;;9.47;1.60;;;;;;;4.86;82.28;102284.31;4992584;28;20704;-81
2024/01/27 00:05:09;;;;;;;11.90;2.40;;;;;;;4.83;82.64;102289.69;4997356;28;20647;-81
2024/01/27 00:07:35;;;;;;;10.77;2.00;;;;;;;4.80;82.83;102284.44;4998566;28;20712;-81
2024/01/27 00:10:02;;;;;;;9.23;2.67;;;;;;;4.78;83.51;102289.72;5006805;28;20231;-78
2024/01/27 00:12:28;;;;;;;13.47;2.87;;;;;;;4.81;83.70;102299.38;4999032;28;20595;-80
2024/01/27 00:14:54;;;;;;;11.03;1.97;;;;;;;4.81;83.95;102302.88;5003173;28;20210;-80
2024/01/27 00:17:23;;;;;;;7.70;2.30;;;;;;;4.77;84.12;102317.00;5003499;28;20694;-81
2024/01/27 00:19:50;;;;;;;14.10;2.97;;;;;;;4.76;84.46;102303.84;5002382;28;20210;-82
2024/01/27 00:22:18;;;;;;;9.73;1.93;;;;;;;4.74;84.70;102305.63;5000695;28;20735;-82
2024/01/27 00:24:44;;;;;;;8.77;1.60;;;;;;;4.76;84.68;102314.38;5001138;28;20239;-82
2024/01/27 00:27:11;;;;;;;9.57;2.40;;;;;;;4.75;85.43;102325.84;5003371;28;20207;-81
2024/01/27 00:29:38;;;;;;;15.47;2.20;;;;;;;4.76;85.38;102315.25;4999000;28;20302;-81
2024/01/27 00:32:04;;;;;;;12.17;2.57;;;;;;;4.74;85.27;102310.91;5001222;28;20245;-81
2024/01/27 00:34:31;;;;;;;8.23;2.10;;;;;;;4.74;85.08;102317.06;4998375;28;20207;-82
2024/01/27 00:36:57;;;;;;;9.83;2.47;;;;;;;4.74;85.49;102317.06;5000228;28;20214;-82
2024/01/27 00:39:25;;;;;;;12.97;2.10;;;;;;;4.75;85.31;102321.44;4993654;28;20230;-79
2024/01/27 00:41:52;;;;;;;10.67;2.40;;;;;;;4.75;85.52;102320.56;5006056;28;20223;-81
2024/01/27 00:44:19;;;;;;;11.50;1.83;;;;;;;4.76;85.35;102323.19;4999104;28;20735;-82
2024/01/27 00:46:45;;;;;;;12.23;3.10;;;;;;;4.74;85.73;102309.13;5000058;28;20250;-80
2024/01/27 00:49:12;;;;;;;12.20;2.30;;;;;;;4.73;86.20;102320.59;4995928;28;20298;-79
2024/01/27 00:51:39;;;;;;;9.63;2.07;;;;;;;4.75;86.50;102333.75;4998085;28;20227;-81
2024/01/27 00:54:06;;;;;;;13.77;2.20;;;;;;;4.74;86.78;102332.00;5000717;28;20363;-81
2024/01/27 00:56:34;;;;;;;13.10;2.90;;;;;;;4.73;87.20;102335.53;4995170;28;20204;-81
2024/01/27 00:59:00;;;;;;;9.67;2.20;;;;;;;4.73;87.13;102328.50;4989815;28;20208;-82
2024/01/27 01:01:28;;;;;;;12.07;2.07;;;;;;;4.74;87.77;102326.72;4994235;28;20241;-81
2024/01/27 01:03:54;;;;;;;12.03;2.23;;;;;;;4.74;87.82;102330.25;4991082;28;20577;-82
2024/01/27 01:06:21;;;;;;;12.53;2.23;;;;;;;4.76;88.04;102336.38;4994758;28;20207;-81
2024/01/27 01:08:47;;;;;;;15.20;2.63;;;;;;;4.75;88.40;102334.63;4992847;28;20212;-81
2024/01/27 01:11:14;;;;;;;9.13;1.93;;;;;;;4.78;88.64;102337.25;4997558;28;20228;-81
2024/01/27 01:13:42;;;;;;;12.50;2.83;;;;;;;4.78;88.70;102339.88;4994943;28;20310;-81
2024/01/27 01:16:09;;;;;;;12.70;2.30;;;;;;;4.76;88.87;102349.56;4993664;28;20581;-82
2024/01/27 01:18:35;;;;;;;14.33;2.60;;;;;;;4.77;89.20;102330.22;4985819;28;20345;-80
2024/01/27 01:21:02;;;;;;;18.73;2.43;;;;;;;4.75;89.31;102333.75;4993211;28;20254;-80
2024/01/27 01:23:28;;;;;;;14.03;2.57;;;;;;;4.77;89.61;102332.84;4988043;28;20242;-81
2024/01/27 01:25:55;;;;;;;17.33;2.80;;;;;;;4.81;89.70;102331.06;4990861;28;20334;-82
2024/01/27 01:28:21;;;;;;;12.77;2.10;;;;;;;4.79;89.64;102332.84;4996691;28;20210;-81
2024/01/27 01:30:50;;;;;;;15.43;2.57;;;;;;;4.75;90.02;102339.91;4995731;28;20231;-81
2024/01/27 01:33:16;;;;;;;10.67;2.50;;;;;;;4.74;89.79;102332.88;4996123;28;20693;-81
2024/01/27 01:35:43;;;;;;;15.77;2.90;;;;;;;4.70;90.03;102348.78;4993512;28;20215;-81
2024/01/27 01:38:09;;;;;;;14.43;2.80;;;;;;;4.71;90.16;102358.44;4996245;28;20232;-81
2024/01/27 01:40:36;;;;;;;11.80;2.17;;;;;;;4.71;90.86;102350.53;4997800;28;20203;-82
2024/01/27 01:43:04;;;;;;;16.73;3.13;;;;;;;4.67;90.83;102343.53;4988292;28;20223;-80
2024/01/27 01:45:30;;;;;;;12.17;2.87;;;;;;;4.68;91.07;102347.91;4990042;28;20229;-80
2024/01/27 01:47:58;;;;;;;16.17;2.90;;;;;;;4.63;90.96;102341.84;4989688;28;20223;-83
2024/01/27 01:50:25;;;;;;;13.07;2.73;;;;;;;4.61;91.19;102351.53;4988454;28;20295;-83
2024/01/27 01:52:54;;;;;;;13.60;2.30;;;;;;;4.58;90.92;102351.56;4990172;28;20231;-83
2024/01/27 01:55:20;;;;;;;13.03;2.10;;;;;;;4.53;91.01;102343.69;4989778;28;20212;-80
2024/01/27 01:57:48;;;;;;;15.07;2.03;;;;;;;4.51;91.61;102343.69;4990249;28;21063;-82
2024/01/27 02:00:16;;;;;;;9.60;2.60;;;;;;;4.51;91.17;102356.03;4987958;28;20274;-79
2024/01/27 02:02:44;;;;;;;17.57;2.87;;;;;;;4.48;91.08;102345.50;4988941;28;20885;-83
2024/01/27 02:05:12;;;;;;;11.57;2.20;;;;;;;4.43;91.20;102347.34;4990882;28;20278;-83
2024/01/27 02:07:39;;;;;;;10.43;2.27;;;;;;;4.41;91.24;102349.13;4987853;28;20227;-81
2024/01/27 02:10:13;;;;;;;17.47;2.67;;;;;;;4.42;91.53;102350.88;4989501;28;20207;-83
2024/01/27 02:12:39;;;;;;;9.07;2.20;;;;;;;4.41;91.74;102344.72;4988130;28;20235;-79
2024/01/27 02:15:10;;;;;;;9.50;3.03;;;;;;;4.40;91.52;102352.63;4989311;28;20203;-83
2024/01/27 02:17:36;;;;;;;9.27;2.23;;;;;;;4.38;91.17;102343.88;4988415;28;20204;-82
2024/01/27 02:20:03;;;;;;;17.13;2.73;;;;;;;4.34;91.96;102347.41;4993411;28;20216;-81
2024/01/27 02:22:31;;;;;;;15.70;2.40;;;;;;;4.29;92.10;102344.84;4989596;28;20768;-83
2024/01/27 02:24:59;;;;;;;14.53;3.07;;;;;;;4.25;92.27;102360.72;4990138;28;20619;-80
2024/01/27 02:27:25;;;;;;;17.37;2.83;;;;;;;4.22;92.76;102366.88;4987268;28;20234;-82
2024/01/27 02:29:52;;;;;;;11.10;2.73;;;;;;;4.21;93.25;102372.19;4994335;28;20215;-83
2024/01/27 02:32:18;;;;;;;15.50;2.67;;;;;;;4.18;93.33;102379.22;4987350;28;20250;-82
2024/01/27 02:34:45;;;;;;;15.07;3.07;;;;;;;4.16;93.17;102378.38;4991634;28;20300;-81
2024/01/27 02:37:11;;;;;;;10.73;2.87;;;;;;;4.14;93.31;102379.25;4994622;28;20234;-80
2024/01/27 02:39:40;;;;;;;13.70;2.47;;;;;;;4.13;93.50;102378.38;4989855;28;20216;-79
2024/01/27 02:42:08;;;;;;;21.50;3.60;;;;;;;4.09;94.35;102368.78;4996045;28;20228;-83
2024/01/27 02:44:34;;;;;;;10.47;2.57;;;;;;;4.08;94.56;102363.53;4990811;28;20242;-81
2024/01/27 02:47:01;;;;;;;17.80;3.83;;;;;;;4.06;94.25;102373.19;4996618;28;20201;-82
2024/01/27 02:49:27;;;;;;;14.00;3.07;;;;;;;4.02;94.71;102377.63;4994685;28;20660;-84
2024/01/27 02:51:54;;;;;;;12.53;2.90;;;;;;;4.00;95.05;102375.88;4994524;28;20227;-84
2024/01/27 02:54:20;;;;;;;19.23;4.60;;;;;;;3.95;94.98;102378.53;5000165;28;20214;-82
2024/01/27 02:56:47;;;;;;;14.10;3.40;;;;;;;3.88;95.14;102374.22;4996792;28;20212;-82
2024/01/27 02:59:14;;;;;;;18.63;3.03;;;;;;;3.89;95.62;102375.09;5002390;28;20215;-83
2024/01/27 03:01:41;;;;;;;12.07;3.50;;;;;;;3.86;95.96;102378.63;4995134;28;20207;-81
2024/01/27 03:04:07;;;;;;;9.67;2.90;;;;;;;3.87;96.04;102383.03;4995705;28;20223;-84
2024/01/27 03:06:34;;;;;;;18.23;3.53;;;;;;;3.82;96.26;102392.72;4998007;28;20199;-82
2024/01/27 03:09:00;;;;;;;15.73;3.67;;;;;;;3.81;96.51;102390.97;5001184;28;20207;-81
2024/01/27 03:11:27;;;;;;;13.30;3.43;;;;;;;3.78;96.43;102409.44;5002086;28;20705;-82
2024/01/27 03:13:53;;;;;;;16.80;3.77;;;;;;;3.71;96.87;102413.03;4995101;28;20227;-81
2024/01/27 03:16:21;;;;;;;12.47;3.50;;;;;;;3.71;97.37;102407.75;4998989;28;20207;-82
2024/01/27 03:18:48;;;;;;;22.27;4.83;;;;;;;3.68;97.36;102413.91;4997670;28;20222;-80
2024/01/27 03:21:14;;;;;;;18.80;3.57;;;;;;;3.65;97.22;102415.69;4995737;28;20594;-82
2024/01/27 03:23:41;;;;;;;13.63;2.90;;;;;;;3.64;97.76;102412.19;4996078;28;20695;-81
2024/01/27 03:26:07;;;;;;;17.13;3.57;;;;;;;3.65;97.83;102423.59;5000827;28;21035;-84
2024/01/27 03:28:34;;;;;;;10.63;3.10;;;;;;;3.62;97.96;102423.59;4996694;28;20729;-82
2024/01/27 03:31:00;;;;;;;13.47;3.60;;;;;;;3.60;97.74;102428.88;4999572;28;20626;-81
2024/01/27 03:33:30;;;;;;;17.70;4.57;;;;;;;3.59;97.76;102427.13;4996667;28;20224;-83
2024/01/27 03:35:57;;;;;;;17.53;5.77;;;;;;;3.57;98.31;102421.03;4997294;28;20222;-81
2024/01/27 03:38:23;;;;;;;16.80;4.20;;;;;;;3.56;98.01;102423.66;4994299;28;20664;-81
2024/01/27 03:40:50;;;;;;;15.27;3.57;;;;;;;3.54;98.19;102421.03;4996330;28;20210;-81
2024/01/27 03:43:16;;;;;;;14.17;3.60;;;;;;;3.50;98.89;102419.28;5004549;28;20238;-84
2024/01/27 03:45:43;;;;;;;14.53;3.13;;;;;;;3.49;98.25;102420.19;4992029;28;20212;-81
2024/01/27 03:48:09;;;;;;;12.13;3.13;;;;;;;3.48;99.01;102423.69;4996375;28;20218;-82
2024/01/27 03:50:37;;;;;;;22.10;3.77;;;;;;;3.46;98.42;102439.50;4994809;28;20210;-82
2024/01/27 03:53:04;;;;;;;17.20;4.63;;;;;;;3.45;99.23;102440.38;4995748;28;20226;-82
2024/01/27 03:55:31;;;;;;;13.53;3.90;;;;;;;3.42;98.81;102457.97;4996694;28;20210;-82
2024/01/27 03:57:57;;;;;;;11.63;3.60;;;;;;;3.41;99.14;102450.94;4990576;28;20224;-81
2024/01/27 04:00:24;;;;;;;19.77;3.73;;;;;;;3.39;99.41;102450.97;4999254;28;20214;-83
2024/01/27 04:02:50;;;;;;;14.33;3.93;;;;;;;3.36;99.24;102452.75;5001781;28;20238;-84
2024/01/27 04:05:17;;;;;;;19.47;3.90;;;;;;;3.35;99.29;102456.25;5004777;28;20203;-81
2024/01/27 04:07:45;;;;;;;13.77;3.73;;;;;;;3.34;100.00;102455.38;5004796;28;20839;-83
2024/01/27 04:10:11;;;;;;;14.10;4.00;;;;;;;3.31;99.64;102444.84;4999317;28;20251;-82
2024/01/27 04:12:38;;;;;;;12.97;3.47;;;;;;;3.29;99.66;102451.00;4999163;28;20293;-83
2024/01/27 04:15:05;;;;;;;13.93;3.43;;;;;;;3.25;100.00;102460.69;4998247;28;20211;-82
2024/01/27 04:17:31;;;;;;;15.67;3.43;;;;;;;3.24;99.64;102456.28;5000957;28;20211;-83
2024/01/27 04:19:58;;;;;;;17.97;4.60;;;;;;;3.26;100.00;102461.56;5001490;28;20208;-84
2024/01/27 04:22:24;;;;;;;18.77;4.00;;;;;;;3.23;100.00;102466.81;5003326;28;20223;-82
2024/01/27 04:24:52;;;;;;;14.13;3.10;;;;;;;3.22;100.00;102458.09;5002081;28;20204;-81
2024/01/27 04:27:18;;;;;;;14.80;3.63;;;;;;;3.19;100.00;102452.81;4999749;28;20266;-84
2024/01/27 04:29:45;;;;;;;12.63;3.50;;;;;;;3.15;100.00;102461.59;4996052;28;20216;-83
2024/01/27 04:32:12;;;;;;;13.37;3.37;;;;;;;3.12;100.00;102473.03;4994515;28;20227;-82
2024/01/27 04:34:39;;;;;;;15.47;3.57;;;;;;;3.10;100.00;102474.78;4991501;28;20675;-84
2024/01/27 04:37:06;;;;;;;10.93;3.53;;;;;;;3.10;100.00;102471.28;4999225;28;20571;-83
2024/01/27 04:39:32;;;;;;;12.97;3.57;;;;;;;3.08;100.00;102467.75;4999009;28;20222;-83
2024/01/27 04:42:00;;;;;;;12.83;3.27;;;;;;;3.07;100.00;102466.88;4998795;28;20203;-83
2024/01/27 04:44:27;;;;;;;15.00;4.13;;;;;;;3.07;100.00;102468.63;5000775;28;20606;-82
2024/01/27 04:46:54;;;;;;;14.63;3.70;;;;;;;3.02;100.00;102471.31;5001620;28;20214;-80
2024/01/27 04:49:21;;;;;;;15.67;3.97;;;;;;;3.02;100.00;102473.06;5001497;28;20725;-83
2024/01/27 04:51:48;;;;;;;15.23;4.20;;;;;;;2.99;100.00;102470.44;4999762;28;20243;-81
2024/01/27 04:54:14;;;;;;;14.00;4.10;;;;;;;2.97;100.00;102469.56;5003437;28;20231;-82
2024/01/27 04:56:41;;;;;;;10.07;3.80;;;;;;;2.92;100.00;102480.09;4999553;28;20209;-84
2024/01/27 04:59:09;;;;;;;10.47;3.77;;;;;;;2.93;100.00;102487.13;5005728;28;20253;-83
2024/01/27 05:01:35;;;;;;;13.87;3.73;;;;;;;2.96;100.00;102495.00;5001090;28;20211;-81
2024/01/27 05:04:01;;;;;;;12.83;3.50;;;;;;;2.94;100.00;102501.16;5001334;28;20227;-82
2024/01/27 05:06:28;;;;;;;15.50;3.13;;;;;;;2.88;100.00;102495.88;4997354;28;20204;-83
2024/01/27 05:08:54;;;;;;;13.10;3.37;;;;;;;2.90;100.00;102507.28;5003140;28;20206;-83
2024/01/27 05:11:26;;;;;;;18.93;3.90;;;;;;;2.91;100.00;102509.94;4998278;28;20651;-81
2024/01/27 05:13:53;;;;;;;17.10;4.23;;;;;;;2.88;100.00;102514.31;5002344;28;20224;-82
2024/01/27 05:16:20;;;;;;;13.30;3.23;;;;;;;2.86;100.00;102516.09;4998273;28;20217;-81
2024/01/27 05:18:48;;;;;;;13.60;4.37;;;;;;;2.84;100.00;102515.22;5000939;28;20203;-84
2024/01/27 05:21:15;;;;;;;13.90;3.57;;;;;;;2.83;100.00;102514.34;5001650;28;20211;-83
2024/01/27 05:23:41;;;;;;;10.07;3.57;;;;;;;2.78;100.00;102514.34;5001490;28;20253;-82
2024/01/27 05:26:08;;;;;;;16.23;4.37;;;;;;;2.80;100.00;102519.59;4997684;28;20234;-80
2024/01/27 05:28:34;;;;;;;16.57;4.53;;;;;;;2.81;100.00;102523.13;4995325;28;20196;-83
2024/01/27 05:31:01;;;;;;;21.53;4.10;;;;;;;2.80;100.00;102527.50;4999157;28;20211;-83
2024/01/27 05:33:28;;;;;;;15.03;3.77;;;;;;;2.77;100.00;102525.75;4993807;28;20231;-82
2024/01/27 05:35:55;;;;;;;14.13;3.70;;;;;;;2.76;100.00;102533.63;4996755;28;20223;-82
2024/01/27 05:38:22;;;;;;;13.77;3.53;;;;;;;2.75;100.00;102530.13;4995411;28;20211;-83
2024/01/27 05:40:49;;;;;;;19.17;4.13;;;;;;;2.72;100.00;102530.13;4996907;28;20646;-81
2024/01/27 05:43:16;;;;;;;11.87;3.57;;;;;;;2.73;100.00;102529.25;4999716;28;20235;-83
2024/01/27 05:45:42;;;;;;;19.13;3.73;;;;;;;2.71;100.00;102527.50;4996791;28;20212;-84
2024/01/27 05:48:09;;;;;;;15.97;3.93;;;;;;;2.70;100.00;102531.00;4999183;28;20262;-79
2024/01/27 05:50:36;;;;;;;13.73;4.27;;;;;;;2.71;100.00;102531.00;5000191;28;20200;-81
2024/01/27 05:53:03;;;;;;;17.07;3.90;;;;;;;2.71;100.00;102535.38;4998588;28;20598;-77
2024/01/27 05:55:30;;;;;;;9.80;3.67;;;;;;;2.68;100.00;102535.41;4995425;28;20231;-81
2024/01/27 05:57:57;;;;;;;11.57;3.10;;;;;;;2.69;100.00;102530.13;4998058;28;20199;-81
2024/01/27 06:00:23;;;;;;;15.63;3.97;;;;;;;2.69;100.00;102545.03;4997252;28;20199;-79
2024/01/27 06:02:50;;;;;;;11.70;3.47;;;;;;;2.68;100.00;102538.94;5003832;28;20216;-83
2024/01/27 06:05:16;;;;;;;12.60;3.80;;;;;;;2.65;100.00;102538.91;4993463;28;20227;-78
2024/01/27 06:07:46;;;;;;;10.83;3.37;;;;;;;2.66;100.00;102547.69;4998848;28;20207;-82
2024/01/27 06:10:12;;;;;;;19.83;4.87;;;;;;;2.64;100.00;102546.81;4995228;28;20210;-81
2024/01/27 06:12:39;;;;;;;11.97;4.03;;;;;;;2.62;100.00;102546.81;4999126;28;20242;-80
2024/01/27 06:15:08;;;;;;;12.20;3.57;;;;;;;2.60;100.00;102550.31;4996828;28;20794;-79
2024/01/27 06:17:35;;;;;;;15.83;3.97;;;;;;;2.60;100.00;102551.19;4995647;28;20610;-81
2024/01/27 06:20:01;;;;;;;12.87;3.57;;;;;;;2.57;100.00;102550.31;4997427;28;20199;-81
2024/01/27 06:22:28;;;;;;;14.53;4.17;;;;;;;2.58;100.00;102555.56;4996147;28;20220;-82
2024/01/27 06:24:56;;;;;;;14.97;3.80;;;;;;;2.57;100.00;102555.56;4998711;28;20672;-77
2024/01/27 06:27:22;;;;;;;23.60;5.47;;;;;;;2.59;100.00;102561.72;4997008;28;20596;-81
2024/01/27 06:29:48;;;;;;;14.47;3.60;;;;;;;2.59;100.00;102562.59;4997628;28;20230;-82
2024/01/27 06:32:15;;;;;;;11.67;3.90;;;;;;;2.60;100.00;102566.97;4996949;28;20234;-81
2024/01/27 06:34:42;;;;;;;17.53;3.60;;;;;;;2.60;100.00;102561.72;4995057;28;20211;-83
2024/01/27 06:37:08;;;;;;;16.63;4.27;;;;;;;2.60;100.00;102561.72;4996916;28;20204;-79
2024/01/27 06:39:35;;;;;;;13.67;3.83;;;;;;;2.60;100.00;102564.34;4994508;28;20212;-82
2024/01/27 06:42:03;;;;;;;12.40;3.63;;;;;;;2.58;100.00;102558.19;4999540;28;20207;-83
2024/01/27 06:44:29;;;;;;;13.93;4.27;;;;;;;2.62;100.00;102551.19;4997411;28;20219;-83
2024/01/27 06:46:55;;;;;;;14.97;4.80;;;;;;;2.61;100.00;102559.97;4996809;28;20199;-80
2024/01/27 06:49:22;;;;;;;13.43;3.90;;;;;;;2.66;100.00;102566.09;4997655;28;20203;-81
2024/01/27 06:51:48;;;;;;;11.73;3.77;;;;;;;2.65;100.00;102574.88;4996997;28;20207;-85
2024/01/27 06:54:15;;;;;;;13.47;4.80;;;;;;;2.66;100.00;102589.78;4997230;28;20223;-83
2024/01/27 06:56:41;;;;;;;19.03;5.00;;;;;;;2.66;100.00;102589.78;4997445;28;20222;-83
2024/01/27 06:59:09;;;;;;;14.30;4.57;;;;;;;2.66;100.00;102590.66;5000225;28;20210;-83
2024/01/27 07:01:35;;;;;;;9.10;3.80;;;;;;;2.66;100.00;102595.91;4995252;28;20223;-82
2024/01/27 07:04:02;;;;;;;12.83;4.70;;;;;;;2.63;100.00;102600.31;5003645;28;20218;-83
2024/01/27 07:06:28;;;;;;;18.67;4.70;;;;;;;2.62;100.00;102601.19;4999025;28;20191;-80
2024/01/27 07:08:56;;;;;;;11.87;4.80;;;;;;;2.64;100.00;102604.69;4996954;28;20203;-82
2024/01/27 07:11:22;;;;;;;19.30;4.47;;;;;;;2.63;100.00;102600.31;4995270;28;20205;-80
2024/01/27 07:13:48;;;;;;;11.60;4.63;;;;;;;2.60;100.00;102588.00;5001133;28;20235;-82
2024/01/27 07:16:16;;;;;;;10.27;4.23;;;;;;;2.59;100.00;102591.53;4998556;28;20657;-82
2024/01/27 07:18:43;;;;;;;14.10;5.33;;;;;;;2.59;100.00;102599.41;4997995;28;20204;-82
2024/01/27 07:21:09;;;;;;;14.00;4.43;;;;;;;2.56;100.00;102595.91;4996509;28;20212;-80
2024/01/27 07:23:36;;;;;;;18.47;4.77;;;;;;;2.55;100.00;102607.28;4998055;28;20228;-82
2024/01/27 07:26:03;;;;;;;15.07;5.10;;;;;;;2.55;100.00;102608.16;4995736;28;20593;-82
2024/01/27 07:28:30;;;;;;;14.60;4.83;;;;;;;2.54;100.00;102614.31;4995234;28;20219;-85
2024/01/27 07:30:57;;;;;;;19.80;5.87;;;;;;;2.56;100.00;102609.03;4992899;28;20203;-81
2024/01/27 07:33:25;;;;;;;11.13;4.23;;;;;;;2.59;100.00;102609.94;4996768;28;20231;-84
2024/01/27 07:35:51;;;;;;;12.50;4.30;;;;;;;2.58;100.00;102615.19;4994818;28;20206;-84
2024/01/27 07:38:18;;;;;;;11.77;5.20;;;;;;;2.56;100.00;102615.19;4996903;28;20214;-84
2024/01/27 07:40:44;;;;;;;11.97;4.87;;;;;;;2.56;100.00;102619.56;4999502;28;20196;-80
2024/01/27 07:43:11;;;;;;;17.00;4.73;;;;;;;2.59;100.00;102615.19;4999509;28;20724;-83
2024/01/27 07:45:37;;;;;;;15.97;5.57;;;;;;;2.56;100.00;102624.84;4998872;28;20566;-80
2024/01/27 07:48:05;;;;;;;12.23;5.33;;;;;;;2.57;100.00;102627.47;5012053;28;20207;-82
2024/01/27 07:50:33;;;;;;;12.80;5.30;;;;;;;2.61;100.00;102638.88;4998306;28;20590;-83
2024/01/27 07:53:00;;;;;;;13.57;5.30;;;;;;;2.62;100.00;102641.50;4999675;28;20323;-83
2024/01/27 07:55:26;;;;;;;16.53;6.53;;;;;;;2.60;100.00;102638.00;4998918;28;20218;-81
2024/01/27 07:57:53;;;;;;;10.33;4.47;;;;;;;2.65;100.00;102638.00;5000232;28;20711;-82
2024/01/27 08:00:20;;;;;;;14.23;4.90;;;;;;;2.64;100.00;102634.50;4998538;28;20613;-81
2024/01/27 08:02:46;;;;;;;15.83;5.30;;;;;;;2.62;100.00;102644.13;5000709;28;20228;-82
2024/01/27 08:05:13;;;;;;;23.60;7.27;;;;;;;2.60;100.00;102640.63;5002217;28;20680;-81
2024/01/27 08:07:41;;;;;;;17.73;5.17;;;;;;;2.60;100.00;102648.50;5000824;28;20204;-81
2024/01/27 08:10:10;;;;;;;13.97;5.37;;;;;;;2.62;100.00;102648.53;4999975;28;21237;-83
2024/01/27 08:12:37;;;;;;;17.80;5.63;;;;;;;2.60;100.00;102651.16;5001199;28;20232;-83
2024/01/27 08:15:04;;;;;;;13.83;4.93;;;;;;;2.67;100.00;102650.28;5002142;28;20209;-82
2024/01/27 08:17:31;;;;;;;20.33;5.30;;;;;;;2.66;100.00;102653.78;4999917;28;20254;-81
2024/01/27 08:19:57;;;;;;;11.40;4.43;;;;;;;2.69;100.00;102658.16;5003065;28;20230;-84
2024/01/27 08:22:24;;;;;;;16.20;5.03;;;;;;;2.71;100.00;102656.41;5000083;28;20349;-81
2024/01/27 08:24:52;;;;;;;14.73;5.10;;;;;;;2.72;100.00;102653.78;5000247;28;20204;-82
2024/01/27 08:27:18;;;;;;;14.93;5.43;;;;;;;2.76;100.00;102650.28;5000748;28;20207;-81
2024/01/27 08:29:45;;;;;;;17.23;5.47;;;;;;;2.77;100.00;102662.56;5001119;28;20212;-81
2024/01/27 08:32:12;;;;;;;14.10;4.87;;;;;;;2.79;100.00;102654.69;5002224;28;20215;-83
2024/01/27 08:34:38;;;;;;;9.30;4.30;;;;;;;2.83;100.00;102656.44;4999885;28;20318;-81
2024/01/27 08:37:15;;;;;;;14.57;5.57;;;;;;;2.88;100.00;102652.03;5001856;28;20219;-78
2024/01/27 08:39:42;;;;;;;11.63;5.43;;;;;;;2.94;100.00;102648.53;4994765;28;20219;-83
2024/01/27 08:42:09;;;;;;;18.07;5.40;;;;;;;2.96;100.00;102652.94;4995483;28;20218;-82
2024/01/27 08:44:36;;;;;;;17.50;5.83;;;;;;;3.02;100.00;102657.31;4993272;28;20673;-81
2024/01/27 08:47:02;;;;;;;12.73;4.90;;;;;;;3.08;100.00;102662.56;4988837;28;20208;-83
2024/01/27 08:49:29;;;;;;;14.90;5.33;;;;;;;3.13;100.00;102658.19;4995905;28;20207;-83
2024/01/27 08:51:56;;;;;;;17.07;5.67;;;;;;;3.19;100.00;102663.47;5006016;28;20210;-81
2024/01/27 08:54:22;;;;;;;14.50;5.50;;;;;;;3.22;100.00;102660.81;5003424;28;20223;-78
2024/01/27 08:56:48;;;;;;;11.27;5.30;;;;;;;3.31;100.00;102667.81;5009542;28;20218;-83
2024/01/27 08:59:16;;;;;;;15.10;6.63;;;;;;;3.36;100.00;102668.69;5006590;28;20266;-81
2024/01/27 09:01:43;;;;;;;14.43;5.97;;;;;;;3.40;98.98;102676.56;5006470;28;20208;-79
2024/01/27 09:04:10;;;;;;;15.07;6.23;;;;;;;3.44;98.72;102673.06;5006234;28;20266;-83
2024/01/27 09:06:36;;;;;;;13.67;5.83;;;;;;;3.47;98.94;102680.97;4999618;28;20235;-80
2024/01/27 09:09:03;;;;;;;23.80;6.17;;;;;;;3.53;98.15;102687.13;5007270;28;20270;-80
2024/01/27 09:11:31;;;;;;;16.53;6.37;;;;;;;3.58;97.64;102680.97;5005727;28;20219;-81
2024/01/27 09:13:58;;;;;;;13.63;6.37;;;;;;;3.65;97.92;102681.81;5002949;28;20237;-81
2024/01/27 09:16:26;;;;;;;53.20;9.77;;;;;;;3.70;96.88;102687.94;5003127;28;20221;-79
2024/01/27 09:18:52;;;;;;;11.83;6.20;;;;;;;3.75;97.43;102683.56;4993343;28;20208;-82
2024/01/27 09:21:27;;;;;;;13.33;6.30;;;;;;;3.86;96.70;102694.06;4994957;28;20214;-81
2024/01/27 09:23:54;;;;;;;13.13;6.07;;;;;;;3.88;96.88;102698.44;4989781;28;20226;-79
2024/01/27 09:26:19;;;;;;;24.33;7.03;;;;;;;3.94;96.03;102706.31;5000874;28;20203;-82
2024/01/27 09:28:53;;;;;;;18.07;6.60;;;;;;;4.02;95.41;102709.81;4996832;28;20214;-81
2024/01/27 09:31:21;;;;;;;16.30;5.80;;;;;;;4.04;95.04;102699.25;5004876;28;20444;-82
2024/01/27 09:33:50;;;;;;;15.83;8.07;;;;;;;4.10;94.46;102697.50;5004806;28;20290;-81
2024/01/27 09:36:16;;;;;;;15.17;6.47;;;;;;;4.14;94.15;102688.66;5002624;28;20207;-82
2024/01/27 09:38:43;;;;;;;16.13;6.77;;;;;;;4.21;94.14;102688.66;4999805;28;20302;-81
2024/01/27 09:41:11;;;;;;;13.43;6.80;;;;;;;4.29;94.31;102695.66;5006921;28;20216;-81
2024/01/27 09:43:38;;;;;;;18.13;7.47;;;;;;;4.34;93.37;102699.13;4999155;28;20499;-82
2024/01/27 09:46:05;;;;;;;21.80;7.50;;;;;;;4.36;92.80;102694.72;5001651;28;20219;-84
2024/01/27 09:48:33;;;;;;;22.50;8.07;;;;;;;4.39;92.75;102699.09;5000815;28;20262;-83
2024/01/27 09:51:02;;;;;;;16.73;7.53;;;;;;;4.46;92.97;102706.13;5005070;28;20211;-78
2024/01/27 09:53:29;;;;;;;13.10;6.70;;;;;;;4.55;91.67;102716.59;4999507;28;20589;-80
2024/01/27 09:55:58;;;;;;;19.60;7.53;;;;;;;4.53;91.56;102713.97;5003060;28;20207;-84
2024/01/27 09:58:28;;;;;;;18.93;8.43;;;;;;;4.60;91.53;102713.94;4992241;28;20211;-83
2024/01/27 10:00:56;;;;;;;21.97;7.10;;;;;;;4.66;91.52;102708.66;5002338;28;20656;-83
2024/01/27 10:03:24;;;;;;;16.27;8.37;;;;;;;4.73;91.74;102712.97;4991073;28;20314;-81
2024/01/27 10:05:52;;;;;;;138.00;74.70;;;;;;;4.80;90.97;102715.59;4988993;28;20211;-81
2024/01/27 10:08:21;;;;;;;20.97;9.00;;;;;;;4.85;90.85;102721.69;4992317;28;20222;-83
2024/01/27 10:10:47;;;;;;;14.30;8.07;;;;;;;4.85;89.84;102710.25;4994892;28;20204;-83
2024/01/27 10:13:17;;;;;;;18.33;8.47;;;;;;;4.86;90.12;102718.16;4992964;28;20236;-83
2024/01/27 10:15:43;;;;;;;19.73;8.43;;;;;;;4.90;89.71;102719.03;4997912;28;20208;-80
2024/01/27 10:18:12;;;;;;;15.37;8.13;;;;;;;4.91;89.23;102709.34;4998272;28;20200;-81
2024/01/27 10:20:46;;;;;;;18.50;7.97;;;;;;;4.98;89.91;102724.28;4988035;28;20234;-83
2024/01/27 10:23:14;;;;;;;17.17;8.23;;;;;;;5.04;89.49;102722.44;4982936;28;20317;-80
2024/01/27 10:25:42;;;;;;;15.13;7.87;;;;;;;5.07;89.15;102718.91;4994021;28;20741;-81
2024/01/27 10:28:08;;;;;;;16.63;7.80;;;;;;;5.09;89.28;102725.06;4988467;28;20295;-81
2024/01/27 10:30:35;;;;;;;15.53;8.20;;;;;;;5.14;89.21;102717.97;4995132;28;20238;-82
2024/01/27 10:33:02;;;;;;;14.10;8.23;;;;;;;5.16;88.93;102734.69;4996104;28;20316;-82
2024/01/27 10:35:29;;;;;;;20.80;8.97;;;;;;;5.12;88.48;102730.31;4987396;28;20290;-83
2024/01/27 10:37:57;;;;;;;18.63;9.03;;;;;;;5.12;88.92;102736.47;4992261;28;20207;-80
2024/01/27 10:40:25;;;;;;;19.73;8.60;;;;;;;5.13;89.16;102740.00;4996215;28;20207;-81
2024/01/27 10:43:04;;;;;;;18.03;8.97;;;;;;;5.13;89.37;102726.78;4997838;28;20223;-83
2024/01/27 10:45:35;;;;;;;19.27;8.47;;;;;;;5.14;89.70;102724.13;5000355;28;20203;-82
2024/01/27 10:48:04;;;;;;;19.37;9.13;;;;;;;5.17;89.38;102725.88;4997917;28;20672;-81
2024/01/27 10:50:30;;;;;;;23.30;9.10;;;;;;;5.18;89.72;102719.72;4996604;28;20256;-82
2024/01/27 10:52:58;;;;;;;18.53;8.87;;;;;;;5.20;89.49;102724.06;5000995;28;20241;-83
2024/01/27 10:55:25;;;;;;;17.97;9.10;;;;;;;5.22;89.48;102714.38;4990937;28;20227;-81
2024/01/27 10:57:54;;;;;;;18.93;9.20;;;;;;;5.22;89.29;102731.97;4992343;28;20203;-81
2024/01/27 11:00:23;;;;;;;20.03;9.03;;;;;;;5.24;89.49;102730.22;4986460;28;20211;-81
2024/01/27 11:02:53;;;;;;;17.10;8.63;;;;;;;5.25;89.30;102721.41;4993766;28;20227;-82
2024/01/27 11:05:21;;;;;;;20.07;8.80;;;;;;;5.23;89.60;102720.53;4995205;28;20800;-83
2024/01/27 11:07:49;;;;;;;24.70;9.43;;;;;;;5.29;89.70;102709.91;4998392;28;20208;-81
2024/01/27 11:10:15;;;;;;;18.67;9.33;;;;;;;5.30;89.57;102703.75;4997654;28;20208;-81
2024/01/27 11:12:42;;;;;;;18.47;8.83;;;;;;;5.33;89.92;102698.44;5000058;28;21385;-82
2024/01/27 11:15:10;;;;;;;23.93;9.47;;;;;;;5.37;89.97;102699.28;5000924;28;20223;-81
2024/01/27 11:17:40;;;;;;;17.00;8.73;;;;;;;5.39;89.79;102694.84;5000147;28;20212;-79
2024/01/27 11:20:09;;;;;;;33.03;16.43;;;;;;;5.41;89.32;102693.94;5004375;28;20239;-82